sensor_id;sensor_type;location;lat;lon;timestamp;P1;durP1;ratioP1;P2;durP2;ratioP2
64712;SDS011;51140;45.340;5.980;2022-11-20T00:00:49;10.20;;;2.83;;
64712;SDS011;51140;45.340;5.980;2022-11-20T00:03:14;7.18;;;3.00;;
64712;SDS011;51140;45.340;5.980;2022-11-20T00:05:40;7.57;;;2.83;;
64712;SDS011;51140;45.340;5.980;2022-11-20T00:08:05;9.52;;;3.15;;
64712;SDS011;51140;45.340;5.980;2022-11-20T00:10:31;6.45;;;2.83;;
64712;SDS011;51140;45.340;5.980;2022-11-20T00:13:00;8.73;;;3.80;;
64712;SDS011;51140;45.340;5.980;2022-11-20T00:15:25;7.93;;;3.03;;
64712;SDS011;51140;45.340;5.980;2022-11-20T00:17:51;8.98;;;3.65;;
64712;SDS011;51140;45.340;5.980;2022-11-20T00:20:16;12.73;;;3.47;;
64712;SDS011;51140;45.340;5.980;2022-11-20T00:22:41;8.77;;;3.05;;
64712;SDS011;51140;45.340;5.980;2022-11-20T00:25:07;7.40;;;2.95;;
64712;SDS011;51140;45.340;5.980;2022-11-20T00:27:32;9.43;;;3.08;;
64712;SDS011;51140;45.340;5.980;2022-11-20T00:29:58;5.35;;;2.50;;
64712;SDS011;51140;45.340;5.980;2022-11-20T00:32:23;8.38;;;3.10;;
64712;SDS011;51140;45.340;5.980;2022-11-20T00:34:48;7.32;;;3.40;;
64712;SDS011;51140;45.340;5.980;2022-11-20T00:37:14;9.77;;;3.15;;
64712;SDS011;51140;45.340;5.980;2022-11-20T00:39:39;6.43;;;2.70;;
64712;SDS011;51140;45.340;5.980;2022-11-20T00:42:05;9.30;;;3.35;;
64712;SDS011;51140;45.340;5.980;2022-11-20T00:44:30;7.00;;;3.30;;
64712;SDS011;51140;45.340;5.980;2022-11-20T00:46:55;7.30;;;3.38;;
64712;SDS011;51140;45.340;5.980;2022-11-20T00:49:21;7.38;;;3.40;;
64712;SDS011;51140;45.340;5.980;2022-11-20T00:51:46;9.55;;;3.53;;
64712;SDS011;51140;45.340;5.980;2022-11-20T00:54:12;6.93;;;3.35;;
64712;SDS011;51140;45.340;5.980;2022-11-20T00:56:37;8.40;;;3.35;;
64712;SDS011;51140;45.340;5.980;2022-11-20T00:59:02;9.40;;;4.05;;
64712;SDS011;51140;45.340;5.980;2022-11-20T01:01:28;7.07;;;3.47;;
64712;SDS011;51140;45.340;5.980;2022-11-20T01:03:57;8.25;;;3.58;;
64712;SDS011;51140;45.340;5.980;2022-11-20T01:06:26;8.85;;;3.70;;
64712;SDS011;51140;45.340;5.980;2022-11-20T01:08:54;7.28;;;3.55;;
64712;SDS011;51140;45.340;5.980;2022-11-20T01:11:22;8.85;;;3.20;;
64712;SDS011;51140;45.340;5.980;2022-11-20T01:13:49;8.30;;;3.45;;
64712;SDS011;51140;45.340;5.980;2022-11-20T01:16:20;9.23;;;3.33;;
64712;SDS011;51140;45.340;5.980;2022-11-20T01:18:48;7.68;;;3.22;;
64712;SDS011;51140;45.340;5.980;2022-11-20T01:21:17;8.15;;;3.47;;
64712;SDS011;51140;45.340;5.980;2022-11-20T01:23:47;8.70;;;3.58;;
64712;SDS011;51140;45.340;5.980;2022-11-20T01:26:24;8.30;;;3.65;;
64712;SDS011;51140;45.340;5.980;2022-11-20T01:28:51;7.18;;;3.22;;
64712;SDS011;51140;45.340;5.980;2022-11-20T01:31:18;9.35;;;3.70;;
64712;SDS011;51140;45.340;5.980;2022-11-20T01:33:46;7.82;;;3.97;;
64712;SDS011;51140;45.340;5.980;2022-11-20T01:36:13;11.40;;;4.22;;
64712;SDS011;51140;45.340;5.980;2022-11-20T01:38:40;10.48;;;3.97;;
64712;SDS011;51140;45.340;5.980;2022-11-20T01:41:05;8.23;;;3.72;;
64712;SDS011;51140;45.340;5.980;2022-11-20T01:43:32;7.68;;;3.65;;
64712;SDS011;51140;45.340;5.980;2022-11-20T01:48:36;9.68;;;3.95;;
64712;SDS011;51140;45.340;5.980;2022-11-20T01:51:12;9.07;;;3.65;;
64712;SDS011;51140;45.340;5.980;2022-11-20T01:53:41;8.27;;;3.88;;
64712;SDS011;51140;45.340;5.980;2022-11-20T01:56:08;9.35;;;3.92;;
64712;SDS011;51140;45.340;5.980;2022-11-20T01:58:37;11.07;;;4.00;;
64712;SDS011;51140;45.340;5.980;2022-11-20T02:01:05;7.75;;;3.65;;
64712;SDS011;51140;45.340;5.980;2022-11-20T02:03:31;9.73;;;3.85;;
64712;SDS011;51140;45.340;5.980;2022-11-20T02:08:50;9.45;;;3.70;;
64712;SDS011;51140;45.340;5.980;2022-11-20T02:11:16;7.13;;;2.92;;
64712;SDS011;51140;45.340;5.980;2022-11-20T02:13:41;8.52;;;3.25;;
64712;SDS011;51140;45.340;5.980;2022-11-20T02:16:11;8.45;;;3.63;;
64712;SDS011;51140;45.340;5.980;2022-11-20T02:18:39;8.60;;;3.53;;
64712;SDS011;51140;45.340;5.980;2022-11-20T02:21:07;8.82;;;3.40;;
64712;SDS011;51140;45.340;5.980;2022-11-20T02:23:41;7.93;;;3.30;;
64712;SDS011;51140;45.340;5.980;2022-11-20T02:26:26;8.07;;;3.47;;
64712;SDS011;51140;45.340;5.980;2022-11-20T02:28:54;8.75;;;3.55;;
64712;SDS011;51140;45.340;5.980;2022-11-20T02:31:20;8.43;;;3.40;;
64712;SDS011;51140;45.340;5.980;2022-11-20T02:33:45;10.77;;;4.28;;
64712;SDS011;51140;45.340;5.980;2022-11-20T02:36:11;6.70;;;3.45;;
64712;SDS011;51140;45.340;5.980;2022-11-20T02:38:40;7.32;;;3.53;;
64712;SDS011;51140;45.340;5.980;2022-11-20T02:41:06;10.00;;;3.67;;
64712;SDS011;51140;45.340;5.980;2022-11-20T02:43:31;11.65;;;3.80;;
64712;SDS011;51140;45.340;5.980;2022-11-20T02:45:57;6.85;;;2.97;;
64712;SDS011;51140;45.340;5.980;2022-11-20T02:48:22;7.82;;;3.20;;
64712;SDS011;51140;45.340;5.980;2022-11-20T02:50:47;11.63;;;3.80;;
64712;SDS011;51140;45.340;5.980;2022-11-20T02:53:13;9.98;;;3.70;;
64712;SDS011;51140;45.340;5.980;2022-11-20T02:55:38;7.78;;;3.30;;
64712;SDS011;51140;45.340;5.980;2022-11-20T02:58:04;9.27;;;3.38;;
64712;SDS011;51140;45.340;5.980;2022-11-20T03:00:29;6.70;;;3.28;;
64712;SDS011;51140;45.340;5.980;2022-11-20T03:02:55;6.80;;;3.15;;
64712;SDS011;51140;45.340;5.980;2022-11-20T03:05:20;8.50;;;3.50;;
64712;SDS011;51140;45.340;5.980;2022-11-20T03:07:46;7.18;;;3.60;;
64712;SDS011;51140;45.340;5.980;2022-11-20T03:10:11;7.78;;;3.45;;
64712;SDS011;51140;45.340;5.980;2022-11-20T03:12:36;7.25;;;3.33;;
64712;SDS011;51140;45.340;5.980;2022-11-20T03:15:02;7.32;;;3.47;;
64712;SDS011;51140;45.340;5.980;2022-11-20T03:17:27;8.55;;;3.85;;
64712;SDS011;51140;45.340;5.980;2022-11-20T03:19:54;9.10;;;3.38;;
64712;SDS011;51140;45.340;5.980;2022-11-20T03:22:19;6.43;;;2.90;;
64712;SDS011;51140;45.340;5.980;2022-11-20T03:24:45;7.15;;;3.10;;
64712;SDS011;51140;45.340;5.980;2022-11-20T03:27:11;8.05;;;3.88;;
64712;SDS011;51140;45.340;5.980;2022-11-20T03:29:36;7.53;;;3.20;;
64712;SDS011;51140;45.340;5.980;2022-11-20T03:32:01;7.03;;;3.13;;
64712;SDS011;51140;45.340;5.980;2022-11-20T03:34:27;6.97;;;3.33;;
64712;SDS011;51140;45.340;5.980;2022-11-20T03:36:52;7.28;;;3.50;;
64712;SDS011;51140;45.340;5.980;2022-11-20T03:39:17;11.68;;;4.63;;
64712;SDS011;51140;45.340;5.980;2022-11-20T03:41:43;13.90;;;6.10;;
64712;SDS011;51140;45.340;5.980;2022-11-20T03:44:09;11.85;;;4.82;;
64712;SDS011;51140;45.340;5.980;2022-11-20T03:46:35;9.88;;;3.80;;
64712;SDS011;51140;45.340;5.980;2022-11-20T03:49:01;6.88;;;3.55;;
64712;SDS011;51140;45.340;5.980;2022-11-20T03:51:29;7.22;;;3.00;;
64712;SDS011;51140;45.340;5.980;2022-11-20T03:53:56;7.72;;;3.47;;
64712;SDS011;51140;45.340;5.980;2022-11-20T03:56:25;7.68;;;3.47;;
64712;SDS011;51140;45.340;5.980;2022-11-20T03:58:53;9.15;;;3.20;;
64712;SDS011;51140;45.340;5.980;2022-11-20T04:01:20;7.93;;;3.20;;
64712;SDS011;51140;45.340;5.980;2022-11-20T04:03:47;6.40;;;3.20;;
64712;SDS011;51140;45.340;5.980;2022-11-20T04:06:14;9.25;;;3.40;;
64712;SDS011;51140;45.340;5.980;2022-11-20T04:08:43;6.05;;;2.88;;
64712;SDS011;51140;45.340;5.980;2022-11-20T04:13:34;10.13;;;3.33;;
64712;SDS011;51140;45.340;5.980;2022-11-20T04:15:59;8.43;;;3.33;;
64712;SDS011;51140;45.340;5.980;2022-11-20T04:18:25;9.77;;;3.45;;
64712;SDS011;51140;45.340;5.980;2022-11-20T04:20:50;8.63;;;3.10;;
64712;SDS011;51140;45.340;5.980;2022-11-20T04:23:15;10.23;;;2.95;;
64712;SDS011;51140;45.340;5.980;2022-11-20T04:25:41;11.38;;;4.32;;
64712;SDS011;51140;45.340;5.980;2022-11-20T04:28:06;7.85;;;3.50;;
64712;SDS011;51140;45.340;5.980;2022-11-20T04:30:31;8.73;;;3.40;;
64712;SDS011;51140;45.340;5.980;2022-11-20T04:32:57;8.30;;;3.70;;
64712;SDS011;51140;45.340;5.980;2022-11-20T04:35:22;9.35;;;3.28;;
64712;SDS011;51140;45.340;5.980;2022-11-20T04:37:47;6.35;;;2.92;;
64712;SDS011;51140;45.340;5.980;2022-11-20T04:40:16;6.82;;;3.15;;
64712;SDS011;51140;45.340;5.980;2022-11-20T04:42:41;9.25;;;3.53;;
64712;SDS011;51140;45.340;5.980;2022-11-20T04:45:07;9.25;;;3.42;;
64712;SDS011;51140;45.340;5.980;2022-11-20T04:47:33;6.32;;;3.05;;
64712;SDS011;51140;45.340;5.980;2022-11-20T04:49:58;8.38;;;3.33;;
64712;SDS011;51140;45.340;5.980;2022-11-20T04:52:23;8.40;;;3.30;;
64712;SDS011;51140;45.340;5.980;2022-11-20T04:54:49;7.50;;;3.10;;
64712;SDS011;51140;45.340;5.980;2022-11-20T04:57:17;6.78;;;3.28;;
64712;SDS011;51140;45.340;5.980;2022-11-20T04:59:43;8.93;;;3.10;;
64712;SDS011;51140;45.340;5.980;2022-11-20T05:02:08;6.68;;;3.05;;
64712;SDS011;51140;45.340;5.980;2022-11-20T05:04:34;6.95;;;3.10;;
64712;SDS011;51140;45.340;5.980;2022-11-20T05:06:59;8.00;;;3.53;;
64712;SDS011;51140;45.340;5.980;2022-11-20T05:09:24;7.80;;;3.00;;
64712;SDS011;51140;45.340;5.980;2022-11-20T05:11:50;8.48;;;3.20;;
64712;SDS011;51140;45.340;5.980;2022-11-20T05:14:15;9.05;;;3.10;;
64712;SDS011;51140;45.340;5.980;2022-11-20T05:16:40;7.20;;;3.40;;
64712;SDS011;51140;45.340;5.980;2022-11-20T05:19:06;6.85;;;3.15;;
64712;SDS011;51140;45.340;5.980;2022-11-20T05:21:32;6.55;;;2.95;;
64712;SDS011;51140;45.340;5.980;2022-11-20T05:23:57;6.15;;;2.60;;
64712;SDS011;51140;45.340;5.980;2022-11-20T05:26:22;7.50;;;3.15;;
64712;SDS011;51140;45.340;5.980;2022-11-20T05:28:48;6.88;;;2.85;;
64712;SDS011;51140;45.340;5.980;2022-11-20T05:31:15;7.05;;;2.80;;
64712;SDS011;51140;45.340;5.980;2022-11-20T05:33:43;6.10;;;2.60;;
64712;SDS011;51140;45.340;5.980;2022-11-20T05:36:10;7.00;;;3.30;;
64712;SDS011;51140;45.340;5.980;2022-11-20T05:38:37;10.23;;;3.00;;
64712;SDS011;51140;45.340;5.980;2022-11-20T05:41:10;7.95;;;3.00;;
64712;SDS011;51140;45.340;5.980;2022-11-20T05:43:38;13.07;;;2.87;;
64712;SDS011;51140;45.340;5.980;2022-11-20T05:46:05;6.38;;;2.85;;
64712;SDS011;51140;45.340;5.980;2022-11-20T05:48:31;9.45;;;2.78;;
64712;SDS011;51140;45.340;5.980;2022-11-20T05:50:58;7.85;;;3.42;;
64712;SDS011;51140;45.340;5.980;2022-11-20T05:53:24;7.53;;;3.60;;
64712;SDS011;51140;45.340;5.980;2022-11-20T05:56:10;8.40;;;4.00;;
64712;SDS011;51140;45.340;5.980;2022-11-20T05:58:37;7.18;;;3.38;;
64712;SDS011;51140;45.340;5.980;2022-11-20T06:01:20;8.75;;;3.53;;
64712;SDS011;51140;45.340;5.980;2022-11-20T06:03:48;10.38;;;3.13;;
64712;SDS011;51140;45.340;5.980;2022-11-20T06:06:15;7.65;;;3.20;;
64712;SDS011;51140;45.340;5.980;2022-11-20T06:08:41;6.88;;;3.28;;
64712;SDS011;51140;45.340;5.980;2022-11-20T06:11:09;9.38;;;3.30;;
64712;SDS011;51140;45.340;5.980;2022-11-20T06:13:35;6.97;;;3.22;;
64712;SDS011;51140;45.340;5.980;2022-11-20T06:16:01;7.95;;;3.40;;
64712;SDS011;51140;45.340;5.980;2022-11-20T06:18:27;7.72;;;3.30;;
64712;SDS011;51140;45.340;5.980;2022-11-20T06:23:49;10.18;;;3.63;;
64712;SDS011;51140;45.340;5.980;2022-11-20T06:26:17;9.10;;;3.78;;
64712;SDS011;51140;45.340;5.980;2022-11-20T06:28:44;8.38;;;3.78;;
64712;SDS011;51140;45.340;5.980;2022-11-20T06:31:10;8.68;;;4.05;;
64712;SDS011;51140;45.340;5.980;2022-11-20T06:33:37;7.38;;;3.67;;
64712;SDS011;51140;45.340;5.980;2022-11-20T06:36:02;8.20;;;3.50;;
64712;SDS011;51140;45.340;5.980;2022-11-20T06:38:29;7.05;;;3.65;;
64712;SDS011;51140;45.340;5.980;2022-11-20T06:40:54;11.27;;;4.03;;
64712;SDS011;51140;45.340;5.980;2022-11-20T06:43:21;9.07;;;3.70;;
64712;SDS011;51140;45.340;5.980;2022-11-20T06:45:54;11.85;;;4.40;;
64712;SDS011;51140;45.340;5.980;2022-11-20T06:48:20;9.85;;;4.32;;
64712;SDS011;51140;45.340;5.980;2022-11-20T06:50:46;8.98;;;4.38;;
64712;SDS011;51140;45.340;5.980;2022-11-20T06:55:47;10.38;;;4.57;;
64712;SDS011;51140;45.340;5.980;2022-11-20T06:58:13;11.00;;;4.57;;
64712;SDS011;51140;45.340;5.980;2022-11-20T07:00:40;9.68;;;4.13;;
64712;SDS011;51140;45.340;5.980;2022-11-20T07:03:06;9.60;;;4.18;;
64712;SDS011;51140;45.340;5.980;2022-11-20T07:05:34;8.05;;;3.90;;
64712;SDS011;51140;45.340;5.980;2022-11-20T07:08:00;9.68;;;4.90;;
64712;SDS011;51140;45.340;5.980;2022-11-20T07:10:25;11.00;;;4.45;;
64712;SDS011;51140;45.340;5.980;2022-11-20T07:12:51;10.20;;;4.57;;
64712;SDS011;51140;45.340;5.980;2022-11-20T07:15:18;10.02;;;4.40;;
64712;SDS011;51140;45.340;5.980;2022-11-20T07:17:45;9.60;;;4.60;;
64712;SDS011;51140;45.340;5.980;2022-11-20T07:20:11;11.48;;;4.60;;
64712;SDS011;51140;45.340;5.980;2022-11-20T07:22:37;8.93;;;4.55;;
64712;SDS011;51140;45.340;5.980;2022-11-20T07:25:02;10.43;;;4.35;;
64712;SDS011;51140;45.340;5.980;2022-11-20T07:27:28;9.77;;;4.60;;
64712;SDS011;51140;45.340;5.980;2022-11-20T07:29:54;9.57;;;4.15;;
64712;SDS011;51140;45.340;5.980;2022-11-20T07:32:19;10.50;;;5.35;;
64712;SDS011;51140;45.340;5.980;2022-11-20T07:34:44;8.30;;;4.10;;
64712;SDS011;51140;45.340;5.980;2022-11-20T07:37:10;9.40;;;4.70;;
64712;SDS011;51140;45.340;5.980;2022-11-20T07:39:35;9.05;;;4.15;;
64712;SDS011;51140;45.340;5.980;2022-11-20T07:42:00;13.73;;;5.05;;
64712;SDS011;51140;45.340;5.980;2022-11-20T07:44:26;9.20;;;4.18;;
64712;SDS011;51140;45.340;5.980;2022-11-20T07:46:51;8.20;;;4.18;;
64712;SDS011;51140;45.340;5.980;2022-11-20T07:49:16;9.38;;;4.30;;
64712;SDS011;51140;45.340;5.980;2022-11-20T07:51:42;7.40;;;3.60;;
64712;SDS011;51140;45.340;5.980;2022-11-20T07:54:07;7.90;;;4.30;;
64712;SDS011;51140;45.340;5.980;2022-11-20T07:56:32;8.85;;;3.90;;
64712;SDS011;51140;45.340;5.980;2022-11-20T07:58:58;10.68;;;3.47;;
64712;SDS011;51140;45.340;5.980;2022-11-20T08:01:23;8.68;;;3.55;;
64712;SDS011;51140;45.340;5.980;2022-11-20T08:03:49;8.63;;;3.70;;
64712;SDS011;51140;45.340;5.980;2022-11-20T08:06:14;9.85;;;4.03;;
64712;SDS011;51140;45.340;5.980;2022-11-20T08:08:39;9.35;;;4.00;;
64712;SDS011;51140;45.340;5.980;2022-11-20T08:11:05;9.48;;;4.13;;
64712;SDS011;51140;45.340;5.980;2022-11-20T08:13:50;8.25;;;3.97;;
64712;SDS011;51140;45.340;5.980;2022-11-20T08:16:34;10.30;;;5.10;;
64712;SDS011;51140;45.340;5.980;2022-11-20T08:18:59;11.43;;;4.82;;
64712;SDS011;51140;45.340;5.980;2022-11-20T08:21:25;8.38;;;4.40;;
64712;SDS011;51140;45.340;5.980;2022-11-20T08:23:50;9.25;;;4.20;;
64712;SDS011;51140;45.340;5.980;2022-11-20T08:26:16;8.70;;;4.53;;
64712;SDS011;51140;45.340;5.980;2022-11-20T08:28:41;10.50;;;5.28;;
64712;SDS011;51140;45.340;5.980;2022-11-20T08:31:06;10.88;;;4.75;;
64712;SDS011;51140;45.340;5.980;2022-11-20T08:33:32;13.65;;;5.28;;
64712;SDS011;51140;45.340;5.980;2022-11-20T08:35:58;11.50;;;5.00;;
64712;SDS011;51140;45.340;5.980;2022-11-20T08:38:28;11.13;;;5.28;;
64712;SDS011;51140;45.340;5.980;2022-11-20T08:40:57;12.32;;;6.15;;
64712;SDS011;51140;45.340;5.980;2022-11-20T08:43:42;28.00;;;11.98;;
64712;SDS011;51140;45.340;5.980;2022-11-20T08:46:08;28.55;;;12.77;;
64712;SDS011;51140;45.340;5.980;2022-11-20T08:48:33;10.00;;;5.88;;
64712;SDS011;51140;45.340;5.980;2022-11-20T08:50:58;12.50;;;6.35;;
64712;SDS011;51140;45.340;5.980;2022-11-20T08:53:24;13.80;;;7.10;;
64712;SDS011;51140;45.340;5.980;2022-11-20T08:55:50;12.43;;;6.43;;
64712;SDS011;51140;45.340;5.980;2022-11-20T08:58:15;14.52;;;7.20;;
64712;SDS011;51140;45.340;5.980;2022-11-20T09:00:41;12.02;;;6.85;;
64712;SDS011;51140;45.340;5.980;2022-11-20T09:03:06;12.13;;;6.63;;
64712;SDS011;51140;45.340;5.980;2022-11-20T09:05:31;14.00;;;6.65;;
64712;SDS011;51140;45.340;5.980;2022-11-20T09:07:57;12.10;;;5.80;;
64712;SDS011;51140;45.340;5.980;2022-11-20T09:10:23;11.55;;;6.13;;
64712;SDS011;51140;45.340;5.980;2022-11-20T09:12:48;12.50;;;6.38;;
64712;SDS011;51140;45.340;5.980;2022-11-20T09:15:14;10.13;;;5.63;;
64712;SDS011;51140;45.340;5.980;2022-11-20T09:17:40;11.43;;;5.70;;
64712;SDS011;51140;45.340;5.980;2022-11-20T09:20:05;11.80;;;5.93;;
64712;SDS011;51140;45.340;5.980;2022-11-20T09:22:31;11.20;;;5.43;;
64712;SDS011;51140;45.340;5.980;2022-11-20T09:24:56;11.95;;;5.68;;
64712;SDS011;51140;45.340;5.980;2022-11-20T09:27:21;10.90;;;5.50;;
64712;SDS011;51140;45.340;5.980;2022-11-20T09:29:47;11.25;;;5.32;;
64712;SDS011;51140;45.340;5.980;2022-11-20T09:32:12;12.45;;;5.25;;
64712;SDS011;51140;45.340;5.980;2022-11-20T09:34:38;12.20;;;5.45;;
64712;SDS011;51140;45.340;5.980;2022-11-20T09:37:03;11.60;;;5.65;;
64712;SDS011;51140;45.340;5.980;2022-11-20T09:39:28;9.73;;;5.22;;
64712;SDS011;51140;45.340;5.980;2022-11-20T09:42:05;11.90;;;5.82;;
64712;SDS011;51140;45.340;5.980;2022-11-20T09:55:43;8.88;;;4.57;;
64712;SDS011;51140;45.340;5.980;2022-11-20T09:58:13;9.52;;;4.30;;
64712;SDS011;51140;45.340;5.980;2022-11-20T10:00:46;8.52;;;4.50;;
64712;SDS011;51140;45.340;5.980;2022-11-20T10:03:14;10.88;;;5.30;;
64712;SDS011;51140;45.340;5.980;2022-11-20T10:05:52;14.25;;;4.22;;
64712;SDS011;51140;45.340;5.980;2022-11-20T10:08:24;9.23;;;4.22;;
64712;SDS011;51140;45.340;5.980;2022-11-20T10:16:15;8.80;;;4.30;;
64712;SDS011;51140;45.340;5.980;2022-11-20T10:27:33;7.78;;;3.53;;
64712;SDS011;51140;45.340;5.980;2022-11-20T10:30:16;7.22;;;3.35;;
64712;SDS011;51140;45.340;5.980;2022-11-20T10:33:19;8.15;;;3.58;;
64712;SDS011;51140;45.340;5.980;2022-11-20T10:35:44;7.93;;;3.40;;
64712;SDS011;51140;45.340;5.980;2022-11-20T10:38:18;6.05;;;3.00;;
64712;SDS011;51140;45.340;5.980;2022-11-20T10:41:01;7.03;;;3.10;;
64712;SDS011;51140;45.340;5.980;2022-11-20T10:43:46;6.25;;;2.90;;
64712;SDS011;51140;45.340;5.980;2022-11-20T10:46:18;6.63;;;2.60;;
64712;SDS011;51140;45.340;5.980;2022-11-20T10:48:49;5.65;;;2.88;;
64712;SDS011;51140;45.340;5.980;2022-11-20T10:52:01;7.30;;;3.08;;
64712;SDS011;51140;45.340;5.980;2022-11-20T10:57:00;8.05;;;2.60;;
64712;SDS011;51140;45.340;5.980;2022-11-20T11:02:23;5.18;;;2.15;;
64712;SDS011;51140;45.340;5.980;2022-11-20T11:04:56;9.52;;;3.45;;
64712;SDS011;51140;45.340;5.980;2022-11-20T11:07:27;6.95;;;2.85;;
64712;SDS011;51140;45.340;5.980;2022-11-20T11:09:59;6.93;;;2.63;;
64712;SDS011;51140;45.340;5.980;2022-11-20T11:12:25;4.55;;;1.90;;
64712;SDS011;51140;45.340;5.980;2022-11-20T11:14:53;4.30;;;1.80;;
64712;SDS011;51140;45.340;5.980;2022-11-20T11:17:22;5.90;;;1.98;;
64712;SDS011;51140;45.340;5.980;2022-11-20T11:20:14;4.50;;;1.67;;
64712;SDS011;51140;45.340;5.980;2022-11-20T11:22:47;7.22;;;2.45;;
64712;SDS011;51140;45.340;5.980;2022-11-20T11:25:31;7.90;;;3.03;;
64712;SDS011;51140;45.340;5.980;2022-11-20T11:28:02;4.97;;;2.00;;
64712;SDS011;51140;45.340;5.980;2022-11-20T11:30:51;5.80;;;2.05;;
64712;SDS011;51140;45.340;5.980;2022-11-20T11:35:59;6.40;;;1.60;;
64712;SDS011;51140;45.340;5.980;2022-11-20T11:38:32;3.40;;;1.63;;
64712;SDS011;51140;45.340;5.980;2022-11-20T11:41:01;5.03;;;1.60;;
64712;SDS011;51140;45.340;5.980;2022-11-20T11:43:29;5.60;;;1.90;;
64712;SDS011;51140;45.340;5.980;2022-11-20T11:46:31;6.55;;;2.38;;
64712;SDS011;51140;45.340;5.980;2022-11-20T11:54:33;10.55;;;6.22;;
64712;SDS011;51140;45.340;5.980;2022-11-20T11:57:00;5.60;;;2.70;;
64712;SDS011;51140;45.340;5.980;2022-11-20T11:59:39;5.97;;;3.03;;
64712;SDS011;51140;45.340;5.980;2022-11-20T12:02:15;5.20;;;1.90;;
64712;SDS011;51140;45.340;5.980;2022-11-20T12:05:01;4.57;;;1.70;;
64712;SDS011;51140;45.340;5.980;2022-11-20T12:09:59;8.80;;;3.00;;
64712;SDS011;51140;45.340;5.980;2022-11-20T12:12:31;4.88;;;2.20;;
64712;SDS011;51140;45.340;5.980;2022-11-20T12:15:09;4.93;;;2.13;;
64712;SDS011;51140;45.340;5.980;2022-11-20T12:17:37;3.85;;;1.60;;
64712;SDS011;51140;45.340;5.980;2022-11-20T12:20:05;6.45;;;2.50;;
64712;SDS011;51140;45.340;5.980;2022-11-20T12:30:16;5.35;;;2.00;;
64712;SDS011;51140;45.340;5.980;2022-11-20T12:35:27;9.38;;;6.65;;
64712;SDS011;51140;45.340;5.980;2022-11-20T12:41:24;11.50;;;8.48;;
64712;SDS011;51140;45.340;5.980;2022-11-20T12:50:07;3.85;;;1.55;;
64712;SDS011;51140;45.340;5.980;2022-11-20T12:52:55;4.15;;;1.48;;
64712;SDS011;51140;45.340;5.980;2022-11-20T13:00:43;3.15;;;1.20;;
64712;SDS011;51140;45.340;5.980;2022-11-20T13:03:36;4.53;;;1.48;;
64712;SDS011;51140;45.340;5.980;2022-11-20T13:08:37;3.28;;;1.40;;
64712;SDS011;51140;45.340;5.980;2022-11-20T13:16:19;2.95;;;1.20;;
64712;SDS011;51140;45.340;5.980;2022-11-20T13:18:49;3.47;;;1.20;;
64712;SDS011;51140;45.340;5.980;2022-11-20T13:21:19;4.13;;;1.30;;
64712;SDS011;51140;45.340;5.980;2022-11-20T13:23:46;3.50;;;1.30;;
64712;SDS011;51140;45.340;5.980;2022-11-20T13:26:24;4.25;;;1.40;;
64712;SDS011;51140;45.340;5.980;2022-11-20T13:31:46;4.22;;;1.15;;
64712;SDS011;51140;45.340;5.980;2022-11-20T13:34:25;6.25;;;1.98;;
64712;SDS011;51140;45.340;5.980;2022-11-20T13:36:53;3.92;;;1.08;;
64712;SDS011;51140;45.340;5.980;2022-11-20T13:39:28;5.55;;;1.42;;
64712;SDS011;51140;45.340;5.980;2022-11-20T13:42:03;5.72;;;1.67;;
64712;SDS011;51140;45.340;5.980;2022-11-20T13:44:50;16.25;;;7.90;;
64712;SDS011;51140;45.340;5.980;2022-11-20T13:47:25;3.53;;;1.30;;
64712;SDS011;51140;45.340;5.980;2022-11-20T13:49:52;4.53;;;1.30;;
64712;SDS011;51140;45.340;5.980;2022-11-20T14:00:27;4.78;;;1.00;;
64712;SDS011;51140;45.340;5.980;2022-11-20T14:03:01;3.20;;;1.38;;
64712;SDS011;51140;45.340;5.980;2022-11-20T14:05:36;2.15;;;0.95;;
64712;SDS011;51140;45.340;5.980;2022-11-20T14:08:04;2.00;;;0.90;;
64712;SDS011;51140;45.340;5.980;2022-11-20T14:10:36;2.25;;;0.95;;
64712;SDS011;51140;45.340;5.980;2022-11-20T14:13:37;2.67;;;1.02;;
64712;SDS011;51140;45.340;5.980;2022-11-20T14:15:58;2.47;;;0.90;;
64712;SDS011;51140;45.340;5.980;2022-11-20T14:18:25;3.75;;;1.10;;
64712;SDS011;51140;45.340;5.980;2022-11-20T14:20:52;2.58;;;0.90;;
64712;SDS011;51140;45.340;5.980;2022-11-20T14:23:27;2.80;;;0.98;;
64712;SDS011;51140;45.340;5.980;2022-11-20T14:25:54;4.30;;;1.02;;
64712;SDS011;51140;45.340;5.980;2022-11-20T14:28:24;4.60;;;1.15;;
64712;SDS011;51140;45.340;5.980;2022-11-20T14:30:51;4.20;;;1.38;;
64712;SDS011;51140;45.340;5.980;2022-11-20T14:33:17;3.65;;;1.30;;
64712;SDS011;51140;45.340;5.980;2022-11-20T14:35:46;3.20;;;1.17;;
64712;SDS011;51140;45.340;5.980;2022-11-20T14:38:17;4.45;;;1.50;;
64712;SDS011;51140;45.340;5.980;2022-11-20T14:40:46;3.88;;;1.40;;
64712;SDS011;51140;45.340;5.980;2022-11-20T14:43:25;3.35;;;1.15;;
64712;SDS011;51140;45.340;5.980;2022-11-20T14:51:25;4.32;;;1.58;;
64712;SDS011;51140;45.340;5.980;2022-11-20T14:53:54;3.05;;;1.40;;
64712;SDS011;51140;45.340;5.980;2022-11-20T14:56:23;4.85;;;1.70;;
64712;SDS011;51140;45.340;5.980;2022-11-20T14:58:58;4.03;;;1.58;;
64712;SDS011;51140;45.340;5.980;2022-11-20T15:01:30;3.22;;;1.25;;
64712;SDS011;51140;45.340;5.980;2022-11-20T15:03:59;5.75;;;1.73;;
64712;SDS011;51140;45.340;5.980;2022-11-20T15:06:35;5.80;;;2.03;;
64712;SDS011;51140;45.340;5.980;2022-11-20T15:09:04;6.18;;;2.30;;
64712;SDS011;51140;45.340;5.980;2022-11-20T15:11:39;5.75;;;2.05;;
64712;SDS011;51140;45.340;5.980;2022-11-20T15:14:26;4.72;;;1.98;;
64712;SDS011;51140;45.340;5.980;2022-11-20T15:16:53;6.88;;;2.40;;
64712;SDS011;51140;45.340;5.980;2022-11-20T15:19:20;5.63;;;2.30;;
64712;SDS011;51140;45.340;5.980;2022-11-20T15:21:50;5.95;;;2.20;;
64712;SDS011;51140;45.340;5.980;2022-11-20T15:24:15;5.32;;;1.90;;
64712;SDS011;51140;45.340;5.980;2022-11-20T15:26:41;5.65;;;2.00;;
64712;SDS011;51140;45.340;5.980;2022-11-20T15:29:10;4.45;;;1.90;;
64712;SDS011;51140;45.340;5.980;2022-11-20T15:31:38;5.32;;;1.65;;
64712;SDS011;51140;45.340;5.980;2022-11-20T15:34:11;6.35;;;1.80;;
64712;SDS011;51140;45.340;5.980;2022-11-20T15:36:41;4.57;;;1.90;;
64712;SDS011;51140;45.340;5.980;2022-11-20T15:39:08;4.47;;;1.63;;
64712;SDS011;51140;45.340;5.980;2022-11-20T15:41:34;3.58;;;1.60;;
64712;SDS011;51140;45.340;5.980;2022-11-20T15:44:00;5.15;;;1.60;;
64712;SDS011;51140;45.340;5.980;2022-11-20T15:46:26;4.13;;;1.60;;
64712;SDS011;51140;45.340;5.980;2022-11-20T15:48:54;4.78;;;1.80;;
64712;SDS011;51140;45.340;5.980;2022-11-20T15:51:29;5.63;;;2.08;;
64712;SDS011;51140;45.340;5.980;2022-11-20T15:53:57;5.25;;;2.17;;
64712;SDS011;51140;45.340;5.980;2022-11-20T15:56:23;6.82;;;2.10;;
64712;SDS011;51140;45.340;5.980;2022-11-20T15:58:49;6.55;;;2.42;;
64712;SDS011;51140;45.340;5.980;2022-11-20T16:01:18;4.97;;;2.33;;
64712;SDS011;51140;45.340;5.980;2022-11-20T16:03:45;5.68;;;2.50;;
64712;SDS011;51140;45.340;5.980;2022-11-20T16:06:11;6.32;;;2.35;;
64712;SDS011;51140;45.340;5.980;2022-11-20T16:08:36;6.72;;;2.05;;
64712;SDS011;51140;45.340;5.980;2022-11-20T16:11:02;4.63;;;1.90;;
64712;SDS011;51140;45.340;5.980;2022-11-20T16:13:30;4.80;;;1.80;;
64712;SDS011;51140;45.340;5.980;2022-11-20T16:18:57;8.90;;;2.20;;
64712;SDS011;51140;45.340;5.980;2022-11-20T16:21:23;10.15;;;2.30;;
64712;SDS011;51140;45.340;5.980;2022-11-20T16:24:01;6.38;;;2.00;;
64712;SDS011;51140;45.340;5.980;2022-11-20T16:26:28;4.93;;;1.73;;
64712;SDS011;51140;45.340;5.980;2022-11-20T16:28:54;4.20;;;1.67;;
64712;SDS011;51140;45.340;5.980;2022-11-20T16:31:20;4.32;;;1.90;;
64712;SDS011;51140;45.340;5.980;2022-11-20T16:33:53;5.63;;;1.98;;
64712;SDS011;51140;45.340;5.980;2022-11-20T16:36:21;4.32;;;1.73;;
64712;SDS011;51140;45.340;5.980;2022-11-20T16:38:51;6.25;;;2.03;;
64712;SDS011;51140;45.340;5.980;2022-11-20T16:41:22;5.00;;;1.63;;